Time;durP1;ratioP1;P1;durP2;ratioP2;P2;SDS_P1;SDS_P2;PMS_P1;PMS_P2;Temp;Humidity;BMP_temperature;BMP_pressure;BME280_temperature;BME280_humidity;BME280_pressure;Samples;Min_cycle;Max_cycle;Signal;HPM_P1;HPM_P2
2022/03/10 00:02:09;;;;;;;74.60;51.33;;;21.10;52.40;;;;;;5012452;28;20038;-76
2022/03/10 00:04:36;;;;;;;69.43;49.55;;;21.10;52.40;;;;;;5013526;28;20066;-76
2022/03/10 00:07:03;;;;;;;70.60;50.08;;;21.10;52.30;;;;;;5013175;28;20061;-76
2022/03/10 00:09:30;;;;;;;66.45;48.80;;;21.10;52.40;;;;;;5012942;28;20036;-76
2022/03/10 00:11:56;;;;;;;66.30;46.85;;;21.10;52.30;;;;;;5028288;28;20036;-76
2022/03/10 00:14:22;;;;;;;71.13;48.75;;;21.10;52.50;;;;;;5013073;28;20034;-76
2022/03/10 00:16:49;;;;;;;69.13;47.97;;;21.10;52.50;;;;;;4995553;28;20034;-76
2022/03/10 00:19:16;;;;;;;68.10;47.42;;;21.20;52.40;;;;;;5021478;23;20173;-75
2022/03/10 00:21:42;;;;;;;67.15;47.80;;;21.20;52.50;;;;;;4990213;28;20030;-75
2022/03/10 00:24:08;;;;;;;65.57;46.05;;;21.20;52.40;;;;;;4992657;28;20031;-75
2022/03/10 00:26:33;;;;;;;68.18;47.15;;;21.10;52.30;;;;;;4993440;28;20026;-75
2022/03/10 00:29:00;;;;;;;67.55;47.60;;;21.10;52.30;;;;;;4993034;28;20027;-75
2022/03/10 00:31:26;;;;;;;64.45;45.08;;;21.20;52.30;;;;;;4991812;28;20335;-75
2022/03/10 00:33:51;;;;;;;64.45;44.92;;;21.10;52.40;;;;;;4993315;28;20360;-75
2022/03/10 00:36:17;;;;;;;61.58;45.30;;;21.20;52.40;;;;;;4993218;28;20029;-76
2022/03/10 00:38:43;;;;;;;63.45;44.72;;;21.10;52.40;;;;;;4992262;28;20124;-76
2022/03/10 00:41:09;;;;;;;59.88;43.63;;;21.10;52.30;;;;;;4992647;28;20034;-75
2022/03/10 00:43:35;;;;;;;60.10;43.47;;;21.10;52.40;;;;;;4993025;28;20434;-76
2022/03/10 00:46:02;;;;;;;57.17;43.15;;;21.20;52.30;;;;;;4991692;28;20286;-75
2022/03/10 00:48:28;;;;;;;59.53;43.28;;;21.20;52.50;;;;;;4991491;28;20038;-76
2022/03/10 00:50:54;;;;;;;62.78;43.63;;;21.10;52.10;;;;;;4991498;28;20483;-75
2022/03/10 00:53:19;;;;;;;61.20;42.72;;;21.10;52.30;;;;;;4991412;28;20069;-75
2022/03/10 00:55:46;;;;;;;55.92;42.33;;;21.20;52.30;;;;;;4992679;28;20562;-75
2022/03/10 00:58:12;;;;;;;56.97;42.65;;;21.10;52.10;;;;;;4991850;28;20112;-75
2022/03/10 01:00:38;;;;;;;59.22;42.85;;;21.20;52.30;;;;;;4992126;28;20031;-75
2022/03/10 01:03:05;;;;;;;56.97;41.28;;;21.10;52.20;;;;;;4991716;28;20431;-75
2022/03/10 01:05:32;;;;;;;53.13;38.55;;;21.20;52.10;;;;;;4992543;28;20030;-75
2022/03/10 01:07:58;;;;;;;55.45;40.38;;;21.20;52.10;;;;;;4992581;28;20026;-75
2022/03/10 01:10:23;;;;;;;57.22;40.63;;;21.20;52.10;;;;;;4991214;28;20030;-75
2022/03/10 01:12:50;;;;;;;54.88;39.80;;;21.10;52.10;;;;;;4990970;28;20522;-76
2022/03/10 01:15:18;;;;;;;54.28;40.08;;;21.20;52.10;;;;;;4991063;28;20065;-75
2022/03/10 01:17:44;;;;;;;55.45;39.85;;;21.20;52.10;;;;;;4991177;28;20049;-75
2022/03/10 01:20:11;;;;;;;51.28;39.17;;;21.20;52.00;;;;;;4991539;28;20045;-76
2022/03/10 01:22:37;;;;;;;56.42;40.05;;;21.20;51.90;;;;;;4985386;28;20395;-76
2022/03/10 01:25:04;;;;;;;56.13;38.60;;;21.20;52.00;;;;;;4984640;28;20030;-76
2022/03/10 01:27:30;;;;;;;55.08;38.25;;;21.20;52.00;;;;;;4974470;28;20072;-76
2022/03/10 01:29:57;;;;;;;53.58;38.05;;;21.20;51.90;;;;;;4986622;28;20041;-76
2022/03/10 01:32:23;;;;;;;52.10;37.88;;;21.20;51.90;;;;;;4992184;28;20379;-76
2022/03/10 01:34:49;;;;;;;48.63;37.47;;;21.20;51.70;;;;;;4992105;28;20028;-76
2022/03/10 01:37:15;;;;;;;50.97;37.42;;;21.20;51.80;;;;;;4991927;28;20034;-76
2022/03/10 01:39:41;;;;;;;49.65;36.97;;;21.20;51.90;;;;;;4991939;28;20364;-75
2022/03/10 01:42:07;;;;;;;53.00;38.00;;;21.20;51.80;;;;;;4991810;28;20037;-76
2022/03/10 01:44:34;;;;;;;49.05;36.13;;;21.20;51.80;;;;;;4991000;28;20037;-75
2022/03/10 01:47:01;;;;;;;50.05;35.33;;;21.20;51.80;;;;;;4991744;28;20026;-76
2022/03/10 01:49:27;;;;;;;47.70;35.33;;;21.20;51.80;;;;;;4991733;28;20053;-75
2022/03/10 01:51:53;;;;;;;53.80;36.78;;;21.20;51.80;;;;;;4991813;28;20391;-76
2022/03/10 01:54:20;;;;;;;49.67;35.55;;;21.20;51.70;;;;;;4974822;28;20030;-75
2022/03/10 01:56:47;;;;;;;48.97;34.83;;;21.20;51.70;;;;;;4991882;28;20030;-76
2022/03/10 01:59:14;;;;;;;46.35;34.58;;;21.20;51.70;;;;;;4990532;28;20534;-75
2022/03/10 02:01:40;;;;;;;46.53;34.58;;;21.20;51.70;;;;;;4974409;28;20044;-76
2022/03/10 02:04:05;;;;;;;47.80;33.70;;;21.20;51.70;;;;;;4991747;28;20034;-76
2022/03/10 02:06:32;;;;;;;46.13;33.83;;;21.20;52.40;;;;;;4991733;28;20037;-76
2022/03/10 02:11:43;;;;;;;47.53;33.95;;;21.20;51.70;;;;;;4991621;28;20394;-75
2022/03/10 02:19:37;;;;;;;41.75;31.73;;;21.20;52.20;;;;;;4991103;28;20076;-75
2022/03/10 02:22:08;;;;;;;44.85;31.95;;;20.80;42.10;;;;;;4991808;28;20042;-76
2022/03/10 02:24:36;;;;;;;40.88;30.52;;;20.60;45.00;;;;;;4990528;28;20026;-73
2022/03/10 02:27:22;;;;;;;44.13;30.58;;;20.70;45.40;;;;;;4991573;28;20117;-75
2022/03/10 02:29:50;;;;;;;42.95;30.48;;;20.70;47.40;;;;;;4991436;28;20415;-75
2022/03/10 02:32:16;;;;;;;42.08;31.40;;;20.80;47.80;;;;;;4990040;28;20113;-75
2022/03/10 02:34:42;;;;;;;42.20;31.40;;;20.80;47.40;;;;;;4991582;28;20026;-75
2022/03/10 02:37:09;;;;;;;41.70;29.15;;;20.90;47.30;;;;;;4994081;28;20045;-76
2022/03/10 02:39:35;;;;;;;42.70;29.73;;;20.90;47.60;;;;;;4994988;28;20030;-75
2022/03/10 02:42:04;;;;;;;35.60;26.85;;;20.90;48.00;;;;;;4993990;28;20072;-76
2022/03/10 02:44:29;;;;;;;37.95;28.10;;;20.90;48.30;;;;;;4995329;28;20034;-75
2022/03/10 02:46:55;;;;;;;39.55;27.85;;;21.00;49.00;;;;;;4993942;28;20477;-75
2022/03/10 02:49:21;;;;;;;38.33;27.17;;;21.00;49.20;;;;;;4993682;28;20038;-75
2022/03/10 02:51:47;;;;;;;38.58;26.55;;;21.00;49.30;;;;;;4993701;28;20410;-76
2022/03/10 02:54:13;;;;;;;36.10;26.95;;;21.00;49.70;;;;;;4995243;28;20084;-76
2022/03/10 02:56:38;;;;;;;35.03;26.85;;;21.00;50.00;;;;;;4993946;28;20387;-75
2022/03/10 02:59:05;;;;;;;34.83;25.70;;;21.00;50.30;;;;;;4994051;28;20516;-75
2022/03/10 03:01:31;;;;;;;35.90;25.20;;;21.00;50.50;;;;;;4994697;28;20033;-75
2022/03/10 03:03:56;;;;;;;33.00;24.15;;;21.00;50.70;;;;;;4995210;28;20030;-75
2022/03/10 03:06:22;;;;;;;33.53;24.52;;;21.00;50.70;;;;;;4995177;28;20493;-75
2022/03/10 03:08:48;;;;;;;35.90;25.55;;;21.00;50.90;;;;;;4993847;28;20026;-75
2022/03/10 03:11:14;;;;;;;34.00;25.08;;;21.00;51.00;;;;;;4994621;28;20031;-75
2022/03/10 03:13:40;;;;;;;33.28;24.80;;;21.00;51.10;;;;;;4995008;28;20536;-76
2022/03/10 03:16:06;;;;;;;36.30;24.60;;;21.00;51.20;;;;;;4994766;28;20026;-75
2022/03/10 03:18:32;;;;;;;31.73;23.10;;;21.00;51.20;;;;;;4993794;28;20471;-75
2022/03/10 03:20:58;;;;;;;31.92;23.77;;;21.00;51.20;;;;;;4994226;28;20084;-75
2022/03/10 03:23:24;;;;;;;32.35;23.20;;;21.00;51.20;;;;;;4993568;28;20479;-75
2022/03/10 03:25:50;;;;;;;30.10;22.95;;;21.00;51.30;;;;;;4994881;28;20438;-75
2022/03/10 03:28:17;;;;;;;34.15;22.40;;;21.00;51.20;;;;;;4994601;28;20041;-75
2022/03/10 03:30:42;;;;;;;32.00;23.52;;;21.00;51.20;;;;;;4993136;28;20434;-75
2022/03/10 03:33:09;;;;;;;34.55;23.08;;;21.10;51.10;;;;;;4993316;28;20023;-75
2022/03/10 03:35:34;;;;;;;31.42;22.48;;;21.00;51.10;;;;;;4993391;28;20258;-75
2022/03/10 03:38:00;;;;;;;29.65;22.40;;;21.10;51.10;;;;;;4993229;28;20404;-75
2022/03/10 03:40:26;;;;;;;29.23;21.77;;;21.10;51.10;;;;;;4994056;28;20038;-75
2022/03/10 03:42:52;;;;;;;29.77;20.92;;;21.10;51.00;;;;;;4994357;28;20038;-75
2022/03/10 03:45:18;;;;;;;32.42;22.13;;;21.10;51.10;;;;;;4993021;28;20037;-75
2022/03/10 03:47:44;;;;;;;30.17;20.95;;;21.10;51.00;;;;;;4993526;28;20137;-75
2022/03/10 03:50:10;;;;;;;29.15;21.77;;;21.00;51.00;;;;;;4993741;28;20104;-75
2022/03/10 03:52:36;;;;;;;34.30;21.45;;;21.10;51.00;;;;;;4993074;28;20038;-75
2022/03/10 03:55:02;;;;;;;28.38;20.75;;;21.10;51.00;;;;;;4994250;28;20105;-75
2022/03/10 03:57:28;;;;;;;28.45;20.73;;;21.10;50.90;;;;;;4976638;28;20038;-75
2022/03/10 03:59:54;;;;;;;29.85;22.02;;;21.10;50.90;;;;;;4994149;28;20029;-75
2022/03/10 04:02:19;;;;;;;29.10;20.75;;;21.00;50.80;;;;;;4992845;28;20041;-75
2022/03/10 04:04:45;;;;;;;25.90;19.58;;;21.10;50.90;;;;;;4993983;28;20037;-75
2022/03/10 04:07:11;;;;;;;27.58;20.45;;;21.10;50.90;;;;;;4976692;28;20041;-75
2022/03/10 04:09:36;;;;;;;28.40;19.55;;;21.10;50.90;;;;;;4992289;28;20026;-76
2022/03/10 04:12:02;;;;;;;28.08;19.60;;;21.10;50.80;;;;;;4993930;28;20129;-75
2022/03/10 04:14:28;;;;;;;27.73;19.55;;;21.10;50.80;;;;;;4993570;28;20026;-75
2022/03/10 04:16:54;;;;;;;29.52;20.25;;;21.10;50.80;;;;;;4992620;28;20109;-75
2022/03/10 04:19:20;;;;;;;27.17;19.85;;;21.10;50.80;;;;;;4993021;28;20031;-75
2022/03/10 04:21:45;;;;;;;25.92;19.30;;;21.10;50.80;;;;;;4993536;28;20030;-75
2022/03/10 04:24:11;;;;;;;28.05;19.95;;;21.10;50.70;;;;;;4992257;28;20030;-75
2022/03/10 04:26:38;;;;;;;25.50;18.58;;;21.10;50.80;;;;;;4992244;28;20045;-75
2022/03/10 04:29:04;;;;;;;25.83;18.95;;;21.10;50.80;;;;;;4993164;28;20036;-76
2022/03/10 04:31:30;;;;;;;25.52;18.52;;;21.10;50.90;;;;;;4993155;28;20538;-76
2022/03/10 04:33:55;;;;;;;26.63;19.20;;;21.10;50.80;;;;;;4993211;28;20105;-76
2022/03/10 04:36:22;;;;;;;25.88;18.10;;;21.10;50.80;;;;;;4992166;28;20101;-76
2022/03/10 04:38:47;;;;;;;26.20;17.95;;;21.10;50.90;;;;;;4992654;28;20049;-75
2022/03/10 04:41:13;;;;;;;25.92;17.65;;;21.10;50.90;;;;;;4992850;28;20084;-76
2022/03/10 04:43:39;;;;;;;27.40;19.48;;;21.10;50.80;;;;;;4991952;28;20026;-76
2022/03/10 04:46:05;;;;;;;23.63;17.77;;;21.10;50.90;;;;;;4993227;28;20034;-75
2022/03/10 04:48:31;;;;;;;25.15;18.20;;;21.10;50.80;;;;;;4993100;28;20033;-75
2022/03/10 04:51:00;;;;;;;26.50;18.02;;;21.10;50.90;;;;;;4991424;28;20030;-75
2022/03/10 04:53:26;;;;;;;23.95;17.10;;;21.10;50.90;;;;;;4992860;28;20034;-75
2022/03/10 04:55:52;;;;;;;25.13;18.33;;;21.10;50.90;;;;;;4992946;28;20027;-75
2022/03/10 04:58:18;;;;;;;25.15;17.85;;;21.10;50.90;;;;;;4992906;28;20026;-75
2022/03/10 05:00:44;;;;;;;23.70;17.40;;;21.10;50.90;;;;;;4991606;28;20380;-76
2022/03/10 05:03:09;;;;;;;21.90;16.65;;;21.10;50.90;;;;;;4992647;28;20085;-75
2022/03/10 05:05:35;;;;;;;26.58;17.15;;;21.10;50.80;;;;;;4992843;28;20446;-76
2022/03/10 05:08:01;;;;;;;23.00;17.15;;;21.10;50.90;;;;;;4992886;28;20117;-75
2022/03/10 05:10:27;;;;;;;25.63;17.27;;;21.10;50.80;;;;;;4992125;28;20034;-75
2022/03/10 05:13:01;;;;;;;23.90;16.83;;;21.10;50.90;;;;;;4992515;28;20023;-76
2022/03/10 05:15:31;;;;;;;24.17;16.60;;;21.10;50.90;;;;;;4991463;28;20473;-75
2022/03/10 05:18:01;;;;;;;21.95;15.60;;;21.10;50.90;;;;;;4991492;28;20041;-75
2022/03/10 05:20:27;;;;;;;22.95;16.80;;;21.10;50.90;;;;;;4991958;28;20030;-75
2022/03/10 05:22:56;;;;;;;22.10;16.40;;;21.10;50.90;;;;;;4991573;28;20137;-75
2022/03/10 05:25:24;;;;;;;24.15;16.38;;;21.10;50.90;;;;;;4992280;28;20030;-75
2022/03/10 05:27:51;;;;;;;22.88;16.52;;;21.10;51.00;;;;;;4992088;28;20113;-74
2022/03/10 05:30:18;;;;;;;21.80;16.35;;;21.10;51.00;;;;;;4991157;28;20475;-75
2022/03/10 05:32:44;;;;;;;22.70;15.90;;;21.10;51.00;;;;;;4992277;28;20058;-74
2022/03/10 05:35:14;;;;;;;22.73;16.40;;;21.10;51.00;;;;;;4987929;28;20076;-74
2022/03/10 05:37:40;;;;;;;21.38;15.73;;;21.10;51.00;;;;;;4990758;28;20065;-74
2022/03/10 05:40:16;;;;;;;22.15;16.02;;;21.10;51.00;;;;;;4991655;28;20033;-75
2022/03/10 05:42:43;;;;;;;20.15;15.18;;;21.10;51.00;;;;;;4992224;28;20053;-75
2022/03/10 05:45:09;;;;;;;22.95;16.23;;;21.10;51.00;;;;;;4992064;28;20088;-75
2022/03/10 05:47:35;;;;;;;21.55;15.75;;;21.10;51.00;;;;;;4992282;28;20049;-75
2022/03/10 05:50:06;;;;;;;22.75;16.23;;;21.10;51.00;;;;;;4991569;28;20022;-76
2022/03/10 05:52:32;;;;;;;21.45;15.27;;;21.10;51.00;;;;;;4991966;28;20073;-76
2022/03/10 05:54:58;;;;;;;20.23;14.85;;;21.10;51.00;;;;;;4992229;28;20029;-76
2022/03/10 05:57:24;;;;;;;21.52;15.63;;;21.10;51.10;;;;;;4991874;28;20487;-76
2022/03/10 05:59:49;;;;;;;21.02;14.70;;;21.10;51.00;;;;;;4991475;28;20089;-76
2022/03/10 06:02:16;;;;;;;23.83;16.38;;;21.10;51.10;;;;;;4991969;28;20315;-76
2022/03/10 06:04:43;;;;;;;21.50;15.25;;;21.10;51.00;;;;;;4991605;28;20022;-76
2022/03/10 06:07:08;;;;;;;20.67;15.27;;;21.10;50.90;;;;;;4974517;28;20034;-75
2022/03/10 06:09:34;;;;;;;23.02;15.48;;;21.10;50.90;;;;;;4991318;28;20176;-76
2022/03/10 06:12:01;;;;;;;21.63;15.82;;;21.10;50.90;;;;;;4996757;28;20029;-76
2022/03/10 06:14:27;;;;;;;20.98;14.82;;;21.10;51.00;;;;;;4998324;28;20022;-75
2022/03/10 06:16:52;;;;;;;21.10;15.20;;;21.10;51.00;;;;;;4997239;28;20042;-75
2022/03/10 06:19:19;;;;;;;20.50;14.63;;;21.10;51.00;;;;;;4996171;28;20517;-75
2022/03/10 06:21:45;;;;;;;20.50;14.55;;;21.10;50.90;;;;;;4998384;28;20512;-75
2022/03/10 06:24:11;;;;;;;19.35;14.02;;;21.10;50.90;;;;;;4996864;28;20568;-75
2022/03/10 06:26:37;;;;;;;18.75;14.63;;;21.10;50.90;;;;;;4998174;28;20058;-75
2022/03/10 06:29:07;;;;;;;19.92;14.52;;;21.10;50.90;;;;;;4998118;28;20482;-75
2022/03/10 06:31:34;;;;;;;20.80;14.50;;;21.10;50.80;;;;;;4996736;28;20419;-75
2022/03/10 06:33:59;;;;;;;20.73;14.85;;;21.10;50.80;;;;;;4998019;28;20028;-74
2022/03/10 06:36:26;;;;;;;21.42;14.70;;;21.10;50.80;;;;;;4996850;28;20030;-75
2022/03/10 06:38:53;;;;;;;20.75;14.82;;;21.10;50.80;;;;;;4998005;28;20027;-75
2022/03/10 06:41:19;;;;;;;21.30;14.10;;;21.10;50.80;;;;;;4997810;28;20387;-76
2022/03/10 06:43:45;;;;;;;20.75;14.32;;;21.10;50.80;;;;;;4996825;28;20035;-75
2022/03/10 06:46:11;;;;;;;18.73;14.00;;;21.10;50.80;;;;;;4996764;28;20076;-76
2022/03/10 06:48:37;;;;;;;21.33;14.15;;;21.10;50.70;;;;;;4997948;28;20430;-76
2022/03/10 06:51:04;;;;;;;19.95;13.77;;;21.10;50.60;;;;;;4997699;28;20384;-75
2022/03/10 06:53:30;;;;;;;19.10;13.98;;;21.10;50.60;;;;;;4998093;28;20054;-75
2022/03/10 06:55:55;;;;;;;20.15;14.23;;;21.10;50.60;;;;;;4998446;28;20438;-75
2022/03/10 06:58:21;;;;;;;20.40;14.60;;;21.10;50.60;;;;;;4996726;28;20509;-75
2022/03/10 07:00:47;;;;;;;20.35;13.90;;;21.20;50.60;;;;;;4996253;28;20479;-75
2022/03/10 07:03:13;;;;;;;20.25;13.80;;;21.20;50.70;;;;;;4997707;28;20035;-75
2022/03/10 07:05:39;;;;;;;19.38;13.50;;;21.20;50.70;;;;;;4997928;28;20042;-74
2022/03/10 07:08:05;;;;;;;20.55;14.15;;;21.10;50.60;;;;;;4997734;28;20034;-75
2022/03/10 07:10:31;;;;;;;20.20;13.40;;;21.10;50.70;;;;;;4997586;28;20113;-74
2022/03/10 07:12:56;;;;;;;21.33;13.90;;;21.10;50.70;;;;;;4997695;28;20026;-75
2022/03/10 07:15:22;;;;;;;19.60;13.93;;;21.10;50.70;;;;;;4997954;28;20023;-75
2022/03/10 07:17:49;;;;;;;18.33;12.63;;;21.10;50.70;;;;;;4997965;28;20049;-75
2022/03/10 07:20:14;;;;;;;18.95;13.60;;;21.10;50.70;;;;;;4996234;28;20074;-75
2022/03/10 07:22:41;;;;;;;19.65;13.82;;;21.10;50.70;;;;;;4994713;28;20062;-75
2022/03/10 07:25:20;;;;;;;16.90;12.40;;;21.10;50.70;;;;;;4994645;28;20037;-75
2022/03/10 07:27:46;;;;;;;21.10;13.60;;;21.20;50.80;;;;;;4993358;28;20034;-75
2022/03/10 07:30:12;;;;;;;19.50;13.25;;;21.20;50.80;;;;;;4992559;28;20446;-74
2022/03/10 07:32:38;;;;;;;19.02;13.13;;;21.20;50.80;;;;;;4994534;28;20022;-75
2022/03/10 07:35:04;;;;;;;18.35;13.50;;;21.20;50.80;;;;;;4994454;28;20029;-74
2022/03/10 07:37:30;;;;;;;18.40;13.18;;;21.20;50.80;;;;;;4993422;28;20034;-74
2022/03/10 07:39:55;;;;;;;18.77;12.93;;;21.20;50.80;;;;;;4993845;28;20037;-74
2022/03/10 07:42:21;;;;;;;18.92;13.10;;;21.20;50.90;;;;;;4993759;28;20038;-74
2022/03/10 07:44:47;;;;;;;18.02;12.50;;;21.20;50.80;;;;;;4976785;28;20022;-74
2022/03/10 07:47:12;;;;;;;18.25;12.77;;;21.20;50.80;;;;;;4994109;28;20026;-75
2022/03/10 07:49:38;;;;;;;19.35;13.32;;;21.20;50.80;;;;;;4993689;28;20377;-75
2022/03/10 07:52:06;;;;;;;18.88;12.32;;;21.30;50.90;;;;;;4992906;28;20304;-75
2022/03/10 07:54:33;;;;;;;18.35;12.85;;;21.30;50.90;;;;;;4994180;28;20026;-75
2022/03/10 07:56:59;;;;;;;17.98;13.00;;;21.30;50.90;;;;;;4994537;28;20030;-74
2022/03/10 07:59:24;;;;;;;19.52;12.90;;;21.30;50.80;;;;;;4993652;28;20040;-74
2022/03/10 08:01:50;;;;;;;18.23;12.60;;;21.40;50.90;;;;;;4994027;28;20053;-74
2022/03/10 08:04:16;;;;;;;18.17;12.13;;;21.40;50.90;;;;;;4994114;28;20113;-74
2022/03/10 08:06:42;;;;;;;17.80;12.68;;;21.40;50.80;;;;;;4993576;28;20479;-74
2022/03/10 08:09:10;;;;;;;18.33;12.88;;;21.40;50.90;;;;;;4994012;28;20244;-74
2022/03/10 08:11:38;;;;;;;18.65;12.45;;;21.40;50.90;;;;;;4992318;28;20026;-73
2022/03/10 08:14:04;;;;;;;17.45;12.57;;;21.40;51.00;;;;;;4993568;28;20494;-74
2022/03/10 08:16:31;;;;;;;18.77;12.48;;;21.40;51.10;;;;;;4993701;28;20022;-75
2022/03/10 08:18:57;;;;;;;33.45;12.68;;;21.50;51.20;;;;;;4993652;28;20072;-74
2022/03/10 08:21:23;;;;;;;17.50;11.77;;;21.50;51.20;;;;;;4993604;28;20101;-74
2022/03/10 08:23:48;;;;;;;18.25;12.27;;;21.50;51.20;;;;;;4993766;28;20439;-74
2022/03/10 08:26:14;;;;;;;17.25;11.57;;;21.50;51.10;;;;;;4990906;28;20117;-71
2022/03/10 08:28:40;;;;;;;27.77;18.27;;;21.50;50.40;;;;;;4991058;28;20034;-71
2022/03/10 08:31:05;;;;;;;25.13;18.23;;;21.00;40.10;;;;;;4992677;28;20092;-71
2022/03/10 08:33:31;;;;;;;35.95;19.45;;;20.70;39.10;;;;;;4993162;28;20031;-71
2022/03/10 08:35:57;;;;;;;29.90;19.05;;;20.30;36.00;;;;;;4991024;28;20030;-70
2022/03/10 08:38:25;;;;;;;29.75;19.17;;;20.10;35.90;;;;;;4992069;28;20384;-70
2022/03/10 08:40:51;;;;;;;27.83;19.33;;;19.90;35.80;;;;;;4991429;28;20027;-70
2022/03/10 08:43:17;;;;;;;27.50;17.98;;;19.80;37.00;;;;;;4992926;28;20394;-73
2022/03/10 08:45:43;;;;;;;27.02;17.33;;;19.80;38.10;;;;;;4993107;28;20026;-75
2022/03/10 08:48:09;;;;;;;26.48;17.20;;;20.10;40.30;;;;;;4991894;28;20065;-74
2022/03/10 08:50:34;;;;;;;30.42;17.85;;;20.30;41.80;;;;;;4992505;28;20312;-74
2022/03/10 08:53:00;;;;;;;26.83;17.75;;;20.50;43.80;;;;;;4992033;28;20030;-74
2022/03/10 08:55:26;;;;;;;21.92;14.77;;;20.70;42.20;;;;;;4993316;28;20022;-74
2022/03/10 08:57:53;;;;;;;29.25;14.48;;;20.80;41.60;;;;;;4992873;28;20038;-75
2022/03/10 09:00:19;;;;;;;22.05;13.52;;;20.90;40.70;;;;;;4992960;28;20122;-75
2022/03/10 09:02:45;;;;;;;22.27;12.93;;;21.00;40.70;;;;;;4993055;28;20329;-75
2022/03/10 09:05:11;;;;;;;22.80;12.90;;;21.10;40.80;;;;;;4993116;28;20058;-76
2022/03/10 09:07:37;;;;;;;22.10;11.82;;;21.20;41.70;;;;;;4992806;28;20486;-75
2022/03/10 09:10:07;;;;;;;21.75;11.70;;;21.20;41.90;;;;;;4993090;28;20426;-75
2022/03/10 09:12:32;;;;;;;21.88;11.27;;;21.30;42.10;;;;;;4992875;28;20061;-75
2022/03/10 09:14:58;;;;;;;35.15;25.02;;;21.30;42.30;;;;;;4992679;28;20061;-73
2022/03/10 09:17:24;;;;;;;21.10;13.63;;;21.30;42.50;;;;;;4975199;28;20514;-73
2022/03/10 09:19:50;;;;;;;36.53;26.02;;;21.20;42.60;;;;;;4992377;28;20041;-72
2022/03/10 09:22:17;;;;;;;37.63;24.13;;;21.00;38.90;;;;;;4992268;28;20089;-73
2022/03/10 09:24:43;;;;;;;31.20;21.70;;;20.90;37.90;;;;;;4974033;28;20380;-72
2022/03/10 09:27:09;;;;;;;32.40;19.35;;;20.70;38.20;;;;;;4990119;28;20443;-73
2022/03/10 09:29:35;;;;;;;29.65;18.80;;;20.70;36.90;;;;;;4991582;28;20049;-73
2022/03/10 09:32:01;;;;;;;29.95;19.45;;;20.70;36.70;;;;;;4992618;28;20022;-73
2022/03/10 09:34:27;;;;;;;27.75;17.90;;;20.60;36.60;;;;;;4990713;28;20389;-73
2022/03/10 09:36:53;;;;;;;29.10;17.88;;;20.50;35.90;;;;;;4992254;28;20031;-73
2022/03/10 09:39:20;;;;;;;30.45;17.50;;;20.50;35.80;;;;;;4991606;28;20077;-73
2022/03/10 09:41:45;;;;;;;26.30;16.48;;;20.50;35.60;;;;;;4992185;28;20479;-73
2022/03/10 09:44:17;;;;;;;25.80;17.20;;;20.50;35.30;;;;;;4990940;28;20038;-73
2022/03/10 09:46:44;;;;;;;27.38;15.63;;;20.40;35.10;;;;;;4990670;28;20031;-73
2022/03/10 09:49:10;;;;;;;24.67;14.95;;;20.50;36.50;;;;;;4991876;28;20089;-73
2022/03/10 09:51:36;;;;;;;22.88;13.60;;;20.60;37.50;;;;;;4990492;28;20041;-73
2022/03/10 09:54:02;;;;;;;20.90;13.45;;;20.70;37.20;;;;;;4974082;28;20138;-74
2022/03/10 09:56:28;;;;;;;21.42;13.10;;;20.80;37.00;;;;;;4974559;28;20109;-73
2022/03/10 09:58:53;;;;;;;21.77;13.20;;;20.90;37.20;;;;;;4990591;28;20535;-75
2022/03/10 10:01:19;;;;;;;21.85;12.68;;;20.90;37.20;;;;;;4991921;28;20062;-73
2022/03/10 10:03:45;;;;;;;24.05;12.13;;;21.00;37.60;;;;;;4992079;28;20475;-73
2022/03/10 10:06:11;;;;;;;18.73;10.73;;;21.00;37.70;;;;;;4975005;28;20065;-74
2022/03/10 10:08:39;;;;;;;19.88;11.13;;;21.10;38.00;;;;;;4992685;28;20502;-73
2022/03/10 10:11:05;;;;;;;19.70;11.45;;;21.10;38.20;;;;;;4991432;28;20157;-73
2022/03/10 10:13:40;;;;;;;20.83;10.75;;;21.20;38.50;;;;;;4959532;28;20089;-72
2022/03/10 10:16:08;;;;;;;16.83;10.55;;;21.20;38.70;;;;;;4989809;28;20041;-73
2022/03/10 10:18:36;;;;;;;21.13;10.33;;;21.20;39.00;;;;;;4990054;28;20034;-72
2022/03/10 10:21:04;;;;;;;21.15;10.43;;;21.30;39.40;;;;;;4991014;28;20034;-72
2022/03/10 10:23:32;;;;;;;20.88;10.70;;;21.30;39.40;;;;;;4959901;28;20058;-74
2022/03/10 10:26:10;;;;;;;19.65;10.43;;;21.30;39.60;;;;;;4990217;28;20542;-74
2022/03/10 10:28:43;;;;;;;18.40;9.48;;;21.30;39.80;;;;;;4992273;28;20093;-75
2022/03/10 10:31:11;;;;;;;17.10;10.10;;;21.30;40.00;;;;;;4993358;28;20027;-75
2022/03/10 10:33:39;;;;;;;18.55;10.57;;;21.30;40.20;;;;;;4992417;28;20026;-75
2022/03/10 10:36:12;;;;;;;19.35;9.45;;;21.40;40.40;;;;;;4975016;28;20085;-74
2022/03/10 10:38:39;;;;;;;17.23;9.32;;;21.40;40.70;;;;;;4992468;28;20092;-74
2022/03/10 10:41:22;;;;;;;17.10;9.48;;;21.40;40.80;;;;;;4991806;28;20070;-75
2022/03/10 10:44:00;;;;;;;18.02;9.85;;;21.40;41.00;;;;;;4975505;28;20034;-75
2022/03/10 10:46:39;;;;;;;17.63;10.20;;;21.30;41.20;;;;;;4958804;28;20038;-73
2022/03/10 10:49:19;;;;;;;18.63;9.40;;;21.30;41.40;;;;;;4990295;28;20031;-73
2022/03/10 10:51:53;;;;;;;18.13;9.73;;;21.30;41.60;;;;;;4991692;28;20038;-73
2022/03/10 10:54:19;;;;;;;15.40;9.23;;;21.30;41.60;;;;;;4990406;28;20033;-73
2022/03/10 10:56:47;;;;;;;19.77;9.52;;;21.30;41.70;;;;;;4990863;28;20105;-73
2022/03/10 10:59:45;;;;;;;20.38;9.38;;;21.30;41.80;;;;;;4994260;28;20029;-73
2022/03/10 11:02:19;;;;;;;16.35;9.00;;;21.30;41.90;;;;;;4945998;28;20050;-74
2022/03/10 11:04:47;;;;;;;18.00;9.55;;;21.30;41.90;;;;;;4995013;28;20037;-74
2022/03/10 11:07:14;;;;;;;15.05;8.70;;;21.30;42.10;;;;;;4995246;28;20120;-74
2022/03/10 11:09:43;;;;;;;16.13;9.35;;;21.20;42.30;;;;;;4994508;28;20121;-74
2022/03/10 11:12:13;;;;;;;17.83;9.32;;;21.30;42.50;;;;;;4993955;28;20503;-74
2022/03/10 11:14:39;;;;;;;20.13;9.15;;;21.30;42.60;;;;;;4994050;28;20035;-73
2022/03/10 11:17:05;;;;;;;28.90;11.13;;;21.40;44.10;;;;;;4977757;28;20506;-72
2022/03/10 11:19:37;;;;;;;48.88;15.00;;;21.40;50.60;;;;;;4993157;28;20116;-73
2022/03/10 11:22:15;;;;;;;50.60;15.82;;;21.50;62.40;;;;;;4993925;28;20100;-73
2022/03/10 11:24:59;;;;;;;57.55;15.10;;;21.50;63.40;;;;;;4993831;28;20125;-73
2022/03/10 11:27:32;;;;;;;45.28;13.25;;;21.50;68.30;;;;;;4995528;28;20447;-73
2022/03/10 11:30:01;;;;;;;46.17;13.15;;;21.50;66.30;;;;;;4994439;28;20472;-73
2022/03/10 11:32:28;;;;;;;48.10;13.25;;;21.50;66.10;;;;;;4994969;28;20023;-73
2022/03/10 11:34:58;;;;;;;35.72;13.13;;;21.50;65.40;;;;;;4993153;28;20030;-73
2022/03/10 11:37:45;;;;;;;38.88;14.65;;;21.40;64.70;;;;;;4993425;28;20454;-73
2022/03/10 11:40:16;;;;;;;36.47;13.93;;;21.50;65.60;;;;;;4976495;28;20026;-74
2022/03/10 11:42:43;;;;;;;36.08;13.38;;;21.50;61.90;;;;;;4994684;28;20057;-75
2022/03/10 11:45:20;;;;;;;35.10;13.45;;;21.50;62.60;;;;;;4994503;28;20041;-74
2022/03/10 11:47:48;;;;;;;32.42;12.30;;;21.50;60.00;;;;;;4991939;28;20039;-72
2022/03/10 11:50:22;;;;;;;29.13;12.25;;;21.40;55.20;;;;;;4992706;28;20395;-73
2022/03/10 11:53:04;;;;;;;29.55;13.13;;;21.40;58.50;;;;;;4994092;28;20039;-73
2022/03/10 11:55:43;;;;;;;31.02;12.43;;;21.40;61.00;;;;;;4994095;28;20121;-74
2022/03/10 11:58:11;;;;;;;33.53;11.90;;;21.40;59.10;;;;;;4994067;28;20038;-75
2022/03/10 12:00:51;;;;;;;30.58;11.68;;;21.30;56.20;;;;;;4976330;28;20550;-75
2022/03/10 12:03:19;;;;;;;34.15;11.73;;;21.40;58.40;;;;;;4993684;28;20042;-71
2022/03/10 12:05:59;;;;;;;20.55;11.10;;;21.40;55.20;;;;;;4993200;28;20520;-72
2022/03/10 12:08:29;;;;;;;;;;;21.30;55.80;;;;;;4992579;28;20085;-71
2022/03/10 12:11:00;;;;;;;22.23;10.05;;;21.10;47.60;;;;;;4976453;28;19913;-71
2022/03/10 12:13:29;;;;;;;21.63;10.23;;;21.00;46.00;;;;;;4993871;28;20372;-72
2022/03/10 12:15:55;;;;;;;19.25;10.27;;;21.00;41.30;;;;;;4993786;28;20089;-72
2022/03/10 12:18:24;;;;;;;22.90;9.32;;;20.80;40.30;;;;;;4976206;28;20542;-73
2022/03/10 12:20:55;;;;;;;15.35;8.93;;;20.80;42.80;;;;;;5006114;23;20390;-75
2022/03/10 12:23:26;;;;;;;21.48;10.75;;;20.80;45.00;;;;;;4992890;28;20089;-73
2022/03/10 12:25:55;;;;;;;17.38;9.35;;;21.00;43.80;;;;;;4993592;28;20486;-73
2022/03/10 12:28:49;;;;;;;18.08;9.38;;;21.00;45.90;;;;;;4992410;28;20037;-72
2022/03/10 12:31:19;;;;;;;15.43;8.35;;;21.10;45.40;;;;;;4991741;28;20022;-73
2022/03/10 12:33:55;;;;;;;15.98;7.82;;;21.10;45.90;;;;;;4993325;28;20089;-73
2022/03/10 12:36:42;;;;;;;14.13;7.55;;;21.10;45.30;;;;;;4992283;28;20030;-73
2022/03/10 12:39:16;;;;;;;14.45;7.18;;;21.10;44.80;;;;;;4992100;28;20435;-73